sensor_id;sensor_type;location;lat;lon;timestamp;pressure;altitude;pressure_sealevel;temperature;humidity
62103;BME280;48077;48.104;11.702;2023-02-21T00:00:41;95836.38;;;2.15;80.50
62103;BME280;48077;48.104;11.702;2023-02-21T00:03:23;95876.88;;;2.37;80.76
62103;BME280;48077;48.104;11.702;2023-02-21T00:06:07;95917.72;;;2.64;81.16
62103;BME280;48077;48.104;11.702;2023-02-21T00:08:49;95941.06;;;2.76;81.45
62103;BME280;48077;48.104;11.702;2023-02-21T00:11:31;95946.50;;;2.74;81.70
62103;BME280;48077;48.104;11.702;2023-02-21T00:14:15;95922.22;;;2.56;81.51
62103;BME280;48077;48.104;11.702;2023-02-21T00:16:57;95953.09;;;2.70;81.58
62103;BME280;48077;48.104;11.702;2023-02-21T00:19:39;95927.19;;;2.51;82.06
62103;BME280;48077;48.104;11.702;2023-02-21T00:22:21;95922.63;;;2.45;82.08
62103;BME280;48077;48.104;11.702;2023-02-21T00:25:03;95950.22;;;2.57;81.92
62103;BME280;48077;48.104;11.702;2023-02-21T00:27:45;95934.81;;;2.37;82.45
62103;BME280;48077;48.104;11.702;2023-02-21T00:30:27;95948.13;;;2.44;82.89
62103;BME280;48077;48.104;11.702;2023-02-21T00:33:09;95942.72;;;2.37;82.78
62103;BME280;48077;48.104;11.702;2023-02-21T00:35:51;95932.56;;;2.26;82.88
62103;BME280;48077;48.104;11.702;2023-02-21T00:38:34;95929.31;;;2.16;83.12
62103;BME280;48077;48.104;11.702;2023-02-21T00:41:17;95936.56;;;2.06;83.51
62103;BME280;48077;48.104;11.702;2023-02-21T00:43:58;95931.19;;;1.91;83.48
62103;BME280;48077;48.104;11.702;2023-02-21T00:46:40;95934.16;;;1.88;83.98
62103;BME280;48077;48.104;11.702;2023-02-21T00:49:22;95931.03;;;1.76;84.30
62103;BME280;48077;48.104;11.702;2023-02-21T00:52:06;95941.88;;;1.81;84.46
62103;BME280;48077;48.104;11.702;2023-02-21T00:54:48;95956.03;;;1.80;84.16
62103;BME280;48077;48.104;11.702;2023-02-21T00:57:30;95940.91;;;1.74;84.97
62103;BME280;48077;48.104;11.702;2023-02-21T01:00:18;95942.72;;;1.73;85.29
62103;BME280;48077;48.104;11.702;2023-02-21T01:03:00;95934.19;;;1.63;85.86
62103;BME280;48077;48.104;11.702;2023-02-21T01:05:42;95932.88;;;1.67;85.93
62103;BME280;48077;48.104;11.702;2023-02-21T01:08:24;95931.06;;;1.68;85.62
62103;BME280;48077;48.104;11.702;2023-02-21T01:11:06;95904.94;;;1.58;85.45
62103;BME280;48077;48.104;11.702;2023-02-21T01:13:54;95933.19;;;1.64;85.56
62103;BME280;48077;48.104;11.702;2023-02-21T01:16:36;95927.28;;;1.62;85.73
62103;BME280;48077;48.104;11.702;2023-02-21T01:19:18;95933.69;;;1.59;85.65
62103;BME280;48077;48.104;11.702;2023-02-21T01:22:01;95930.41;;;1.57;85.93
62103;BME280;48077;48.104;11.702;2023-02-21T01:24:43;95893.63;;;1.33;85.55
62103;BME280;48077;48.104;11.702;2023-02-21T01:27:25;95920.06;;;1.48;85.63
62103;BME280;48077;48.104;11.702;2023-02-21T01:30:07;95901.69;;;1.31;85.94
62103;BME280;48077;48.104;11.702;2023-02-21T01:32:49;95921.06;;;1.38;85.66
62103;BME280;48077;48.104;11.702;2023-02-21T01:35:31;95920.91;;;1.32;85.67
62103;BME280;48077;48.104;11.702;2023-02-21T01:38:12;95899.88;;;1.07;86.11
62103;BME280;48077;48.104;11.702;2023-02-21T01:40:55;95858.97;;;0.80;86.68
62103;BME280;48077;48.104;11.702;2023-02-21T01:43:37;95884.59;;;0.94;86.75
62103;BME280;48077;48.104;11.702;2023-02-21T01:46:21;95870.81;;;0.92;86.82
62103;BME280;48077;48.104;11.702;2023-02-21T01:49:15;95899.53;;;1.10;86.77
62103;BME280;48077;48.104;11.702;2023-02-21T01:51:59;95889.03;;;0.94;87.27
62103;BME280;48077;48.104;11.702;2023-02-21T01:54:46;95889.84;;;0.86;87.73
62103;BME280;48077;48.104;11.702;2023-02-21T01:57:29;95894.44;;;0.84;88.23
62103;BME280;48077;48.104;11.702;2023-02-21T02:00:12;95821.66;;;0.27;88.60
62103;BME280;48077;48.104;11.702;2023-02-21T02:03:09;95875.03;;;0.60;89.07
62103;BME280;48077;48.104;11.702;2023-02-21T02:05:59;95863.38;;;0.55;89.41
62103;BME280;48077;48.104;11.702;2023-02-21T02:08:44;95863.84;;;0.50;89.42
62103;BME280;48077;48.104;11.702;2023-02-21T02:17:40;95879.63;;;0.67;90.35
62103;BME280;48077;48.104;11.702;2023-02-21T02:37:50;95878.16;;;0.72;90.51
62103;BME280;48077;48.104;11.702;2023-02-21T02:43:04;95839.91;;;0.53;90.17
62103;BME280;48077;48.104;11.702;2023-02-21T02:48:15;95867.34;;;0.75;90.45
62103;BME280;48077;48.104;11.702;2023-02-21T02:50:45;95837.44;;;0.60;90.43
62103;BME280;48077;48.104;11.702;2023-02-21T02:53:09;95838.44;;;0.59;89.97
62103;BME280;48077;48.104;11.702;2023-02-21T02:56:06;95857.16;;;0.72;89.84
62103;BME280;48077;48.104;11.702;2023-02-21T02:58:24;95843.84;;;0.57;90.17
62103;BME280;48077;48.104;11.702;2023-02-21T03:01:01;95837.44;;;0.52;90.14
62103;BME280;48077;48.104;11.702;2023-02-21T03:11:23;95845.63;;;0.49;90.69
62103;BME280;48077;48.104;11.702;2023-02-21T03:13:58;95855.50;;;0.55;90.53
62103;BME280;48077;48.104;11.702;2023-02-21T03:16:28;95830.53;;;0.34;90.23
62103;BME280;48077;48.104;11.702;2023-02-21T03:18:59;95863.84;;;0.50;90.31
62103;BME280;48077;48.104;11.702;2023-02-21T03:21:31;95856.94;;;0.41;90.51
62103;BME280;48077;48.104;11.702;2023-02-21T03:23:59;95871.06;;;0.48;90.75
62103;BME280;48077;48.104;11.702;2023-02-21T03:26:26;95861.69;;;0.46;90.53
62103;BME280;48077;48.104;11.702;2023-02-21T03:28:53;95847.09;;;0.43;90.45
62103;BME280;48077;48.104;11.702;2023-02-21T03:31:23;95864.81;;;0.49;90.09
62103;BME280;48077;48.104;11.702;2023-02-21T03:33:48;95861.53;;;0.39;90.21
62103;BME280;48077;48.104;11.702;2023-02-21T03:36:11;95837.38;;;0.19;90.27
62103;BME280;48077;48.104;11.702;2023-02-21T03:38:36;95870.22;;;0.39;90.59
62103;BME280;48077;48.104;11.702;2023-02-21T03:40:59;95850.34;;;0.29;90.85
62103;BME280;48077;48.104;11.702;2023-02-21T03:43:23;95834.25;;;0.15;90.61
62103;BME280;48077;48.104;11.702;2023-02-21T03:45:46;95858.84;;;0.23;90.92
62103;BME280;48077;48.104;11.702;2023-02-21T03:48:10;95852.91;;;0.12;90.92
62103;BME280;48077;48.104;11.702;2023-02-21T03:50:33;95858.81;;;0.14;91.09
62103;BME280;48077;48.104;11.702;2023-02-21T03:52:56;95837.16;;;-0.04;91.91
62103;BME280;48077;48.104;11.702;2023-02-21T03:55:20;95841.91;;;0.01;91.83
62103;BME280;48077;48.104;11.702;2023-02-21T03:57:43;95857.69;;;0.09;91.96
62103;BME280;48077;48.104;11.702;2023-02-21T04:00:11;95856.69;;;0.10;92.01
62103;BME280;48077;48.104;11.702;2023-02-21T04:02:34;95844.84;;;0.06;92.00
62103;BME280;48077;48.104;11.702;2023-02-21T04:04:58;95848.97;;;0.08;91.83
62103;BME280;48077;48.104;11.702;2023-02-21T04:07:22;95866.03;;;0.12;92.12
62103;BME280;48077;48.104;11.702;2023-02-21T04:09:46;95824.00;;;-0.12;92.13
62103;BME280;48077;48.104;11.702;2023-02-21T04:12:10;95845.66;;;0.06;92.36
62103;BME280;48077;48.104;11.702;2023-02-21T04:14:34;95830.09;;;-0.04;92.64
62103;BME280;48077;48.104;11.702;2023-02-21T04:16:58;95860.31;;;0.17;92.46
62103;BME280;48077;48.104;11.702;2023-02-21T04:19:21;95851.13;;;0.13;92.70
62103;BME280;48077;48.104;11.702;2023-02-21T04:21:44;95835.19;;;-0.02;92.85
62103;BME280;48077;48.104;11.702;2023-02-21T04:24:08;95841.59;;;0.12;92.74
62103;BME280;48077;48.104;11.702;2023-02-21T04:26:33;95859.69;;;0.23;92.37
62103;BME280;48077;48.104;11.702;2023-02-21T04:28:57;95844.56;;;0.09;92.49
62103;BME280;48077;48.104;11.702;2023-02-21T04:31:21;95835.19;;;0.06;92.09
62103;BME280;48077;48.104;11.702;2023-02-21T04:33:45;95840.13;;;0.09;92.23
62103;BME280;48077;48.104;11.702;2023-02-21T04:36:08;95823.69;;;-0.01;91.91
62103;BME280;48077;48.104;11.702;2023-02-21T04:38:34;95859.03;;;0.21;92.53
62103;BME280;48077;48.104;11.702;2023-02-21T04:41:00;95857.88;;;0.24;92.28
62103;BME280;48077;48.104;11.702;2023-02-21T04:43:23;95854.44;;;0.23;92.05
62103;BME280;48077;48.104;11.702;2023-02-21T04:45:46;95838.16;;;0.11;91.81
62103;BME280;48077;48.104;11.702;2023-02-21T04:48:10;95846.38;;;0.16;92.13
62103;BME280;48077;48.104;11.702;2023-02-21T04:50:33;95836.22;;;0.13;92.51
62103;BME280;48077;48.104;11.702;2023-02-21T04:52:56;95849.19;;;0.23;92.41
62103;BME280;48077;48.104;11.702;2023-02-21T04:55:20;95843.78;;;0.25;92.36
62103;BME280;48077;48.104;11.702;2023-02-21T04:57:46;95833.59;;;0.22;92.54
62103;BME280;48077;48.104;11.702;2023-02-21T05:00:10;95833.78;;;0.28;92.98
62103;BME280;48077;48.104;11.702;2023-02-21T05:02:34;95836.09;;;0.39;92.86
62103;BME280;48077;48.104;11.702;2023-02-21T05:04:57;95808.88;;;0.32;92.73
62103;BME280;48077;48.104;11.702;2023-02-21T05:07:20;95803.78;;;0.39;92.72
62103;BME280;48077;48.104;11.702;2023-02-21T05:09:44;95812.69;;;0.46;92.60
62103;BME280;48077;48.104;11.702;2023-02-21T05:12:07;95801.53;;;0.52;92.35
62103;BME280;48077;48.104;11.702;2023-02-21T05:14:34;95815.13;;;0.64;91.95
62103;BME280;48077;48.104;11.702;2023-02-21T05:16:57;95808.72;;;0.67;91.86
62103;BME280;48077;48.104;11.702;2023-02-21T05:19:21;95818.13;;;0.86;91.67
62103;BME280;48077;48.104;11.702;2023-02-21T05:21:49;95810.25;;;0.86;91.26
62103;BME280;48077;48.104;11.702;2023-02-21T05:24:12;95815.50;;;0.94;91.14
62103;BME280;48077;48.104;11.702;2023-02-21T05:26:37;95795.28;;;0.86;90.69
62103;BME280;48077;48.104;11.702;2023-02-21T05:29:01;95814.00;;;1.08;90.50
62103;BME280;48077;48.104;11.702;2023-02-21T05:31:25;95818.28;;;1.09;90.10
62103;BME280;48077;48.104;11.702;2023-02-21T05:33:49;95781.66;;;0.91;90.11
62103;BME280;48077;48.104;11.702;2023-02-21T05:36:12;95802.97;;;1.04;89.76
62103;BME280;48077;48.104;11.702;2023-02-21T05:38:47;95802.81;;;0.97;89.85
62103;BME280;48077;48.104;11.702;2023-02-21T05:41:11;95792.31;;;0.97;89.60
62103;BME280;48077;48.104;11.702;2023-02-21T05:43:36;95792.81;;;1.01;89.37
62103;BME280;48077;48.104;11.702;2023-02-21T05:46:00;95797.72;;;1.04;89.30
62103;BME280;48077;48.104;11.702;2023-02-21T05:48:23;95821.06;;;1.15;89.14
62103;BME280;48077;48.104;11.702;2023-02-21T05:50:47;95782.00;;;0.96;89.05
62103;BME280;48077;48.104;11.702;2023-02-21T05:53:10;95812.00;;;1.10;88.78
62103;BME280;48077;48.104;11.702;2023-02-21T05:55:33;95778.38;;;0.89;88.97
62103;BME280;48077;48.104;11.702;2023-02-21T05:57:57;95805.16;;;1.00;88.53
62103;BME280;48077;48.104;11.702;2023-02-21T06:00:26;95807.78;;;1.00;88.59
62103;BME280;48077;48.104;11.702;2023-02-21T06:02:51;95818.28;;;1.09;88.80
62103;BME280;48077;48.104;11.702;2023-02-21T06:05:14;95808.59;;;1.01;88.76
62103;BME280;48077;48.104;11.702;2023-02-21T06:07:38;95822.69;;;1.08;88.60
62103;BME280;48077;48.104;11.702;2023-02-21T06:10:02;95812.53;;;1.05;88.48
62103;BME280;48077;48.104;11.702;2023-02-21T06:12:26;95795.78;;;0.98;88.20
62103;BME280;48077;48.104;11.702;2023-02-21T06:14:49;95813.69;;;1.11;88.29
62103;BME280;48077;48.104;11.702;2023-02-21T06:17:12;95815.31;;;1.12;88.05
62103;BME280;48077;48.104;11.702;2023-02-21T06:19:36;95800.34;;;1.04;88.21
62103;BME280;48077;48.104;11.702;2023-02-21T06:21:59;95803.16;;;1.03;87.83
62103;BME280;48077;48.104;11.702;2023-02-21T06:24:22;95807.44;;;1.04;87.70
62103;BME280;48077;48.104;11.702;2023-02-21T06:26:51;95816.75;;;1.14;87.77
62103;BME280;48077;48.104;11.702;2023-02-21T06:29:14;95822.03;;;1.14;87.81
62103;BME280;48077;48.104;11.702;2023-02-21T06:31:40;95810.22;;;1.02;88.09
62103;BME280;48077;48.104;11.702;2023-02-21T06:34:03;95815.97;;;1.06;87.79
62103;BME280;48077;48.104;11.702;2023-02-21T06:36:27;95815.00;;;1.07;88.01
62103;BME280;48077;48.104;11.702;2023-02-21T06:38:53;95839.28;;;1.17;87.90
62103;BME280;48077;48.104;11.702;2023-02-21T06:41:25;95837.13;;;1.12;88.21
62103;BME280;48077;48.104;11.702;2023-02-21T06:43:49;95838.28;;;1.18;88.27
62103;BME280;48077;48.104;11.702;2023-02-21T06:46:17;95848.28;;;1.14;88.21
62103;BME280;48077;48.104;11.702;2023-02-21T06:48:41;95838.44;;;1.08;88.08
62103;BME280;48077;48.104;11.702;2023-02-21T06:51:07;95849.13;;;1.15;88.65
62103;BME280;48077;48.104;11.702;2023-02-21T06:53:33;95844.84;;;1.14;88.77
62103;BME280;48077;48.104;11.702;2023-02-21T06:55:56;95856.19;;;1.23;88.67
62103;BME280;48077;48.104;11.702;2023-02-21T06:58:20;95843.03;;;1.14;88.54
62103;BME280;48077;48.104;11.702;2023-02-21T07:00:43;95858.31;;;1.27;88.65
62103;BME280;48077;48.104;11.702;2023-02-21T07:03:06;95857.31;;;1.28;88.64
62103;BME280;48077;48.104;11.702;2023-02-21T07:05:30;95860.91;;;1.35;88.67
62103;BME280;48077;48.104;11.702;2023-02-21T07:07:56;95854.03;;;1.26;88.90
62103;BME280;48077;48.104;11.702;2023-02-21T07:10:20;95849.44;;;1.20;88.99
62103;BME280;48077;48.104;11.702;2023-02-21T07:12:45;95874.06;;;1.44;88.92
62103;BME280;48077;48.104;11.702;2023-02-21T07:15:09;95868.47;;;1.47;89.05
62103;BME280;48077;48.104;11.702;2023-02-21T07:17:34;95866.00;;;1.53;89.21
62103;BME280;48077;48.104;11.702;2023-02-21T07:19:58;95869.94;;;1.57;89.16
62103;BME280;48077;48.104;11.702;2023-02-21T07:22:21;95878.31;;;1.61;88.77
62103;BME280;48077;48.104;11.702;2023-02-21T07:24:48;95847.75;;;1.52;89.14
62103;BME280;48077;48.104;11.702;2023-02-21T07:27:11;95865.00;;;1.63;88.96
62103;BME280;48077;48.104;11.702;2023-02-21T07:29:35;95857.59;;;1.66;89.12
62103;BME280;48077;48.104;11.702;2023-02-21T07:31:58;95851.50;;;1.66;89.27
62103;BME280;48077;48.104;11.702;2023-02-21T07:34:21;95865.56;;;1.89;88.81
62103;BME280;48077;48.104;11.702;2023-02-21T07:36:45;95864.09;;;1.95;89.23
62103;BME280;48077;48.104;11.702;2023-02-21T07:39:08;95846.31;;;1.97;88.85
62103;BME280;48077;48.104;11.702;2023-02-21T07:41:31;95863.19;;;2.19;89.02
62103;BME280;48077;48.104;11.702;2023-02-21T07:43:55;95850.03;;;2.19;88.30
62103;BME280;48077;48.104;11.702;2023-02-21T07:46:18;95801.25;;;2.00;87.70
62103;BME280;48077;48.104;11.702;2023-02-21T07:48:41;95797.25;;;2.12;87.14
62103;BME280;48077;48.104;11.702;2023-02-21T07:51:06;95872.22;;;2.79;85.94
62103;BME280;48077;48.104;11.702;2023-02-21T07:53:30;95870.94;;;2.98;83.82
62103;BME280;48077;48.104;11.702;2023-02-21T07:55:53;95882.56;;;3.27;82.71
62103;BME280;48077;48.104;11.702;2023-02-21T07:58:17;95875.25;;;3.37;80.95
62103;BME280;48077;48.104;11.702;2023-02-21T08:00:40;95872.38;;;3.61;79.88
62103;BME280;48077;48.104;11.702;2023-02-21T08:03:03;95870.06;;;3.81;78.22
62103;BME280;48077;48.104;11.702;2023-02-21T08:05:27;95881.59;;;4.10;76.70
62103;BME280;48077;48.104;11.702;2023-02-21T08:07:50;95885.25;;;4.24;76.46
62103;BME280;48077;48.104;11.702;2023-02-21T08:10:23;95882.56;;;4.39;75.72
62103;BME280;48077;48.104;11.702;2023-02-21T08:12:47;95856.63;;;4.42;74.67
62103;BME280;48077;48.104;11.702;2023-02-21T08:15:11;95869.06;;;4.63;74.40
62103;BME280;48077;48.104;11.702;2023-02-21T08:17:34;95865.56;;;4.78;73.56
62103;BME280;48077;48.104;11.702;2023-02-21T08:19:58;95862.69;;;4.94;73.23
62103;BME280;48077;48.104;11.702;2023-02-21T08:22:21;95871.34;;;5.10;72.38
62103;BME280;48077;48.104;11.702;2023-02-21T08:24:44;95868.22;;;5.21;71.48
62103;BME280;48077;48.104;11.702;2023-02-21T08:27:08;95866.94;;;5.38;71.16
62103;BME280;48077;48.104;11.702;2023-02-21T08:29:32;95884.44;;;5.61;70.12
62103;BME280;48077;48.104;11.702;2023-02-21T08:31:55;95864.28;;;5.66;68.92
62103;BME280;48077;48.104;11.702;2023-02-21T08:34:19;95869.91;;;5.85;68.81
62103;BME280;48077;48.104;11.702;2023-02-21T08:36:42;95863.84;;;5.91;67.85
62103;BME280;48077;48.104;11.702;2023-02-21T08:39:06;95878.50;;;6.15;66.75
62103;BME280;48077;48.104;11.702;2023-02-21T08:41:42;95870.16;;;6.18;66.77
62103;BME280;48077;48.104;11.702;2023-02-21T08:44:06;95877.97;;;6.33;65.97
62103;BME280;48077;48.104;11.702;2023-02-21T08:46:29;95856.56;;;6.28;65.37
62103;BME280;48077;48.104;11.702;2023-02-21T08:48:52;95880.75;;;6.60;65.13
62103;BME280;48077;48.104;11.702;2023-02-21T08:51:16;95868.34;;;6.67;63.95
62103;BME280;48077;48.104;11.702;2023-02-21T08:53:39;95879.41;;;6.91;63.63
62103;BME280;48077;48.104;11.702;2023-02-21T08:56:03;95876.59;;;7.05;61.67
62103;BME280;48077;48.104;11.702;2023-02-21T08:58:26;95885.22;;;7.27;61.23
62103;BME280;48077;48.104;11.702;2023-02-21T09:00:50;95872.13;;;7.33;60.82
62103;BME280;48077;48.104;11.702;2023-02-21T09:03:23;95871.94;;;7.47;60.37
62103;BME280;48077;48.104;11.702;2023-02-21T09:05:47;95867.03;;;7.58;60.03
62103;BME280;48077;48.104;11.702;2023-02-21T09:08:10;95848.47;;;7.58;59.69
62103;BME280;48077;48.104;11.702;2023-02-21T09:10:33;95874.41;;;7.76;59.48
62103;BME280;48077;48.104;11.702;2023-02-21T09:12:57;95883.56;;;7.93;59.78
62103;BME280;48077;48.104;11.702;2023-02-21T09:15:20;95889.72;;;8.00;58.86
62103;BME280;48077;48.104;11.702;2023-02-21T09:17:44;95864.34;;;8.04;58.18
62103;BME280;48077;48.104;11.702;2023-02-21T09:20:09;95869.84;;;8.16;58.69
62103;BME280;48077;48.104;11.702;2023-02-21T09:22:33;95835.34;;;8.03;58.50
62103;BME280;48077;48.104;11.702;2023-02-21T09:24:57;95854.72;;;8.23;58.79
62103;BME280;48077;48.104;11.702;2023-02-21T09:27:24;95861.22;;;8.34;57.30
62103;BME280;48077;48.104;11.702;2023-02-21T09:29:58;95851.00;;;8.38;57.74
62103;BME280;48077;48.104;11.702;2023-02-21T09:32:23;95849.75;;;8.47;57.93
62103;BME280;48077;48.104;11.702;2023-02-21T09:34:47;95831.34;;;8.45;57.07
62103;BME280;48077;48.104;11.702;2023-02-21T09:37:10;95845.53;;;8.78;56.18
62103;BME280;48077;48.104;11.702;2023-02-21T09:39:38;95868.69;;;9.09;55.43
62103;BME280;48077;48.104;11.702;2023-02-21T09:42:01;95878.16;;;9.30;54.60
62103;BME280;48077;48.104;11.702;2023-02-21T09:44:27;95870.91;;;9.44;54.74
62103;BME280;48077;48.104;11.702;2023-02-21T09:46:54;95853.09;;;9.44;53.89
62103;BME280;48077;48.104;11.702;2023-02-21T09:49:27;95867.06;;;9.65;51.68
62103;BME280;48077;48.104;11.702;2023-02-21T09:51:53;95859.88;;;9.65;51.35
62103;BME280;48077;48.104;11.702;2023-02-21T09:54:34;95864.44;;;9.83;50.09
62103;BME280;48077;48.104;11.702;2023-02-21T09:57:00;95868.00;;;9.96;49.72
62103;BME280;48077;48.104;11.702;2023-02-21T09:59:24;95866.84;;;10.10;50.50
62103;BME280;48077;48.104;11.702;2023-02-21T10:04:59;95865.63;;;10.31;49.80
62103;BME280;48077;48.104;11.702;2023-02-21T10:07:36;95859.78;;;10.41;49.45
62103;BME280;48077;48.104;11.702;2023-02-21T10:13:50;95864.38;;;10.52;49.35
62103;BME280;48077;48.104;11.702;2023-02-21T10:18:41;95861.47;;;10.72;48.04
62103;BME280;48077;48.104;11.702;2023-02-21T10:21:21;95840.63;;;10.81;47.67
62103;BME280;48077;48.104;11.702;2023-02-21T10:23:48;95868.03;;;11.06;47.25
62103;BME280;48077;48.104;11.702;2023-02-21T10:26:18;95855.69;;;11.36;46.32
62103;BME280;48077;48.104;11.702;2023-02-21T10:28:43;95861.03;;;11.47;46.43
62103;BME280;48077;48.104;11.702;2023-02-21T10:31:14;95867.22;;;11.60;46.70
62103;BME280;48077;48.104;11.702;2023-02-21T10:33:40;95855.84;;;11.64;45.01
62103;BME280;48077;48.104;11.702;2023-02-21T10:36:19;95876.31;;;11.82;45.40
62103;BME280;48077;48.104;11.702;2023-02-21T10:41:20;95863.81;;;12.18;44.19
62103;BME280;48077;48.104;11.702;2023-02-21T10:43:45;95853.25;;;12.23;43.78
62103;BME280;48077;48.104;11.702;2023-02-21T10:46:30;95859.13;;;12.37;43.63
62103;BME280;48077;48.104;11.702;2023-02-21T10:49:21;95863.09;;;12.46;43.10
62103;BME280;48077;48.104;11.702;2023-02-21T10:51:48;95839.47;;;12.43;43.55
62103;BME280;48077;48.104;11.702;2023-02-21T10:54:24;95849.50;;;12.76;42.51
62103;BME280;48077;48.104;11.702;2023-02-21T10:56:49;95850.50;;;12.99;43.15
62103;BME280;48077;48.104;11.702;2023-02-21T10:59:31;95850.75;;;13.14;42.53
62103;BME280;48077;48.104;11.702;2023-02-21T11:01:56;95846.53;;;13.30;41.49
62103;BME280;48077;48.104;11.702;2023-02-21T11:06:46;95846.00;;;13.62;40.76
62103;BME280;48077;48.104;11.702;2023-02-21T11:12:02;95836.06;;;14.13;39.70
62103;BME280;48077;48.104;11.702;2023-02-21T11:14:28;95831.25;;;14.15;38.88
62103;BME280;48077;48.104;11.702;2023-02-21T11:19:58;95825.28;;;14.30;38.70
62103;BME280;48077;48.104;11.702;2023-02-21T11:22:43;95806.69;;;14.46;38.76
62103;BME280;48077;48.104;11.702;2023-02-21T11:25:19;95798.69;;;14.68;38.14
62103;BME280;48077;48.104;11.702;2023-02-21T11:27:43;95808.44;;;15.01;38.72
62103;BME280;48077;48.104;11.702;2023-02-21T11:30:20;95798.47;;;15.24;37.87
62103;BME280;48077;48.104;11.702;2023-02-21T11:32:49;95798.31;;;15.35;36.95
62103;BME280;48077;48.104;11.702;2023-02-21T11:37:49;95781.31;;;15.62;36.92
62103;BME280;48077;48.104;11.702;2023-02-21T11:40:26;95777.69;;;15.78;36.20
62103;BME280;48077;48.104;11.702;2023-02-21T11:42:49;95762.91;;;15.81;35.96
62103;BME280;48077;48.104;11.702;2023-02-21T11:45:23;95773.75;;;15.91;35.28
62103;BME280;48077;48.104;11.702;2023-02-21T11:48:13;95733.50;;;15.69;35.56
62103;BME280;48077;48.104;11.702;2023-02-21T11:50:45;95757.44;;;16.08;35.13
62103;BME280;48077;48.104;11.702;2023-02-21T11:53:23;95775.63;;;16.38;35.59
62103;BME280;48077;48.104;11.702;2023-02-21T11:56:10;95744.19;;;16.54;34.83
62103;BME280;48077;48.104;11.702;2023-02-21T11:58:41;95758.59;;;16.91;34.51
62103;BME280;48077;48.104;11.702;2023-02-21T12:01:11;95754.56;;;17.04;34.11
62103;BME280;48077;48.104;11.702;2023-02-21T12:09:34;95744.63;;;17.19;32.82
62103;BME280;48077;48.104;11.702;2023-02-21T12:12:08;95742.19;;;17.13;33.45
62103;BME280;48077;48.104;11.702;2023-02-21T12:18:16;95732.66;;;16.74;33.89
62103;BME280;48077;48.104;11.702;2023-02-21T12:30:57;95721.34;;;14.92;37.26
62103;BME280;48077;48.104;11.702;2023-02-21T12:39:21;95711.25;;;14.28;38.56
62103;BME280;48077;48.104;11.702;2023-02-21T12:42:02;95710.84;;;14.41;38.86
62103;BME280;48077;48.104;11.702;2023-02-21T12:47:32;95706.06;;;14.97;37.72
62103;BME280;48077;48.104;11.702;2023-02-21T12:50:00;95698.88;;;15.03;37.09
62103;BME280;48077;48.104;11.702;2023-02-21T12:52:26;95692.84;;;14.91;38.33
62103;BME280;48077;48.104;11.702;2023-02-21T12:55:02;95692.66;;;14.70;38.28
62103;BME280;48077;48.104;11.702;2023-02-21T12:57:48;95671.72;;;14.45;38.72
62103;BME280;48077;48.104;11.702;2023-02-21T13:00:24;95690.94;;;14.37;38.55
62103;BME280;48077;48.104;11.702;2023-02-21T13:05:49;95668.84;;;14.03;39.87
62103;BME280;48077;48.104;11.702;2023-02-21T13:08:46;95682.00;;;14.04;39.98
62103;BME280;48077;48.104;11.702;2023-02-21T13:11:15;95663.34;;;13.92;40.36
62103;BME280;48077;48.104;11.702;2023-02-21T13:13:41;95637.34;;;13.71;40.43
62103;BME280;48077;48.104;11.702;2023-02-21T13:16:09;95665.84;;;13.77;41.08
62103;BME280;48077;48.104;11.702;2023-02-21T13:18:39;95657.91;;;13.65;41.30
62103;BME280;48077;48.104;11.702;2023-02-21T13:29:37;95640.25;;;13.47;42.24
62103;BME280;48077;48.104;11.702;2023-02-21T13:32:16;95628.47;;;13.48;42.41
62103;BME280;48077;48.104;11.702;2023-02-21T13:34:43;95625.81;;;13.48;41.65
62103;BME280;48077;48.104;11.702;2023-02-21T13:37:16;95608.03;;;13.42;41.88
62103;BME280;48077;48.104;11.702;2023-02-21T13:39:44;95601.75;;;13.53;41.94
62103;BME280;48077;48.104;11.702;2023-02-21T13:42:20;95621.63;;;14.02;40.92
62103;BME280;48077;48.104;11.702;2023-02-21T13:44:48;95630.13;;;14.21;41.04
62103;BME280;48077;48.104;11.702;2023-02-21T13:47:13;95619.72;;;14.24;40.77
62103;BME280;48077;48.104;11.702;2023-02-21T13:55:08;95592.19;;;13.85;41.54
62103;BME280;48077;48.104;11.702;2023-02-21T13:57:34;95598.84;;;13.77;41.44
62103;BME280;48077;48.104;11.702;2023-02-21T13:59:57;95585.88;;;13.69;41.56
62103;BME280;48077;48.104;11.702;2023-02-21T14:02:27;95592.03;;;13.69;42.17
62103;BME280;48077;48.104;11.702;2023-02-21T14:07:42;95600.13;;;13.74;42.02
62103;BME280;48077;48.104;11.702;2023-02-21T14:13:03;95590.41;;;13.68;41.76
62103;BME280;48077;48.104;11.702;2023-02-21T14:15:39;95572.69;;;13.45;42.60
62103;BME280;48077;48.104;11.702;2023-02-21T14:18:03;95570.63;;;13.30;43.08
62103;BME280;48077;48.104;11.702;2023-02-21T14:20:28;95552.41;;;13.10;42.96
62103;BME280;48077;48.104;11.702;2023-02-21T14:22:57;95554.69;;;13.02;43.09
62103;BME280;48077;48.104;11.702;2023-02-21T14:25:23;95579.44;;;13.09;43.32
62103;BME280;48077;48.104;11.702;2023-02-21T14:27:47;95551.78;;;12.86;43.63
62103;BME280;48077;48.104;11.702;2023-02-21T14:32:37;95564.00;;;12.99;43.37
62103;BME280;48077;48.104;11.702;2023-02-21T14:35:13;95573.13;;;12.98;43.91
62103;BME280;48077;48.104;11.702;2023-02-21T14:38:02;95566.63;;;12.94;44.26
62103;BME280;48077;48.104;11.702;2023-02-21T14:41:00;95560.03;;;13.02;44.92
62103;BME280;48077;48.104;11.702;2023-02-21T14:46:31;95551.03;;;12.91;45.13
62103;BME280;48077;48.104;11.702;2023-02-21T15:03:24;95530.31;;;12.47;45.44
62103;BME280;48077;48.104;11.702;2023-02-21T15:06:05;95516.31;;;12.40;45.58
62103;BME280;48077;48.104;11.702;2023-02-21T15:08:39;95538.03;;;12.44;45.50
62103;BME280;48077;48.104;11.702;2023-02-21T15:13:42;95506.59;;;12.17;46.69
62103;BME280;48077;48.104;11.702;2023-02-21T15:16:19;95517.44;;;12.27;47.19
62103;BME280;48077;48.104;11.702;2023-02-21T15:19:04;95498.72;;;12.27;47.18
62103;BME280;48077;48.104;11.702;2023-02-21T15:21:27;95499.69;;;12.21;47.30
62103;BME280;48077;48.104;11.702;2023-02-21T15:24:05;95517.09;;;12.24;47.61